sensor_id;sensor_type;location;lat;lon;timestamp;P1;durP1;ratioP1;P2;durP2;ratioP2
57889;SDS011;43707;50.184;18.966;2022-08-21T00:02:14;18.90;;;16.20;;
57889;SDS011;43707;50.184;18.966;2022-08-21T00:04:40;26.40;;;16.20;;
57889;SDS011;43707;50.184;18.966;2022-08-21T00:07:06;18.60;;;16.10;;
57889;SDS011;43707;50.184;18.966;2022-08-21T00:09:31;21.70;;;17.40;;
57889;SDS011;43707;50.184;18.966;2022-08-21T00:11:57;22.20;;;16.70;;
57889;SDS011;43707;50.184;18.966;2022-08-21T00:14:22;25.40;;;17.00;;
57889;SDS011;43707;50.184;18.966;2022-08-21T00:16:48;26.10;;;18.70;;
57889;SDS011;43707;50.184;18.966;2022-08-21T00:19:13;22.10;;;16.20;;
57889;SDS011;43707;50.184;18.966;2022-08-21T00:21:39;25.80;;;16.50;;
57889;SDS011;43707;50.184;18.966;2022-08-21T00:24:04;26.50;;;16.30;;
57889;SDS011;43707;50.184;18.966;2022-08-21T00:26:30;22.40;;;17.10;;
57889;SDS011;43707;50.184;18.966;2022-08-21T00:28:55;21.90;;;15.50;;
57889;SDS011;43707;50.184;18.966;2022-08-21T00:31:21;22.80;;;16.40;;
57889;SDS011;43707;50.184;18.966;2022-08-21T00:33:46;19.00;;;15.10;;
57889;SDS011;43707;50.184;18.966;2022-08-21T00:36:12;17.30;;;14.90;;
57889;SDS011;43707;50.184;18.966;2022-08-21T00:38:38;20.60;;;16.00;;
57889;SDS011;43707;50.184;18.966;2022-08-21T00:41:04;19.20;;;15.30;;
57889;SDS011;43707;50.184;18.966;2022-08-21T00:43:32;20.20;;;15.10;;
57889;SDS011;43707;50.184;18.966;2022-08-21T00:46:00;23.10;;;15.40;;
57889;SDS011;43707;50.184;18.966;2022-08-21T00:48:26;25.10;;;15.80;;
57889;SDS011;43707;50.184;18.966;2022-08-21T00:53:30;21.40;;;15.30;;
57889;SDS011;43707;50.184;18.966;2022-08-21T00:55:57;21.30;;;16.20;;
57889;SDS011;43707;50.184;18.966;2022-08-21T00:58:23;21.50;;;15.90;;
57889;SDS011;43707;50.184;18.966;2022-08-21T01:00:49;19.60;;;15.20;;
57889;SDS011;43707;50.184;18.966;2022-08-21T01:03:17;18.30;;;16.40;;
57889;SDS011;43707;50.184;18.966;2022-08-21T01:05:49;23.20;;;17.00;;
57889;SDS011;43707;50.184;18.966;2022-08-21T01:08:15;18.10;;;15.00;;
57889;SDS011;43707;50.184;18.966;2022-08-21T01:10:41;22.60;;;16.70;;
57889;SDS011;43707;50.184;18.966;2022-08-21T01:13:08;19.70;;;17.20;;
57889;SDS011;43707;50.184;18.966;2022-08-21T01:15:39;22.30;;;17.10;;
57889;SDS011;43707;50.184;18.966;2022-08-21T01:20:35;25.20;;;16.10;;
57889;SDS011;43707;50.184;18.966;2022-08-21T01:23:02;20.90;;;15.60;;
57889;SDS011;43707;50.184;18.966;2022-08-21T01:25:29;27.60;;;17.40;;
57889;SDS011;43707;50.184;18.966;2022-08-21T01:27:56;20.50;;;17.00;;
57889;SDS011;43707;50.184;18.966;2022-08-21T01:30:23;25.40;;;17.70;;
57889;SDS011;43707;50.184;18.966;2022-08-21T01:32:50;24.20;;;17.40;;
57889;SDS011;43707;50.184;18.966;2022-08-21T01:35:17;25.70;;;16.70;;
57889;SDS011;43707;50.184;18.966;2022-08-21T01:37:44;24.20;;;17.10;;
57889;SDS011;43707;50.184;18.966;2022-08-21T01:40:11;20.60;;;16.30;;
57889;SDS011;43707;50.184;18.966;2022-08-21T01:42:38;22.30;;;17.10;;
57889;SDS011;43707;50.184;18.966;2022-08-21T01:45:05;21.10;;;16.60;;
57889;SDS011;43707;50.184;18.966;2022-08-21T01:47:31;23.50;;;14.60;;
57889;SDS011;43707;50.184;18.966;2022-08-21T01:49:57;27.10;;;17.10;;
57889;SDS011;43707;50.184;18.966;2022-08-21T01:52:23;20.10;;;15.50;;
57889;SDS011;43707;50.184;18.966;2022-08-21T01:54:49;24.80;;;17.30;;
57889;SDS011;43707;50.184;18.966;2022-08-21T01:57:14;25.00;;;17.90;;
57889;SDS011;43707;50.184;18.966;2022-08-21T01:59:40;25.50;;;17.10;;
57889;SDS011;43707;50.184;18.966;2022-08-21T02:02:06;22.50;;;16.00;;
57889;SDS011;43707;50.184;18.966;2022-08-21T02:04:32;27.10;;;17.40;;
57889;SDS011;43707;50.184;18.966;2022-08-21T02:06:58;26.10;;;17.20;;
57889;SDS011;43707;50.184;18.966;2022-08-21T02:09:24;19.90;;;15.60;;
57889;SDS011;43707;50.184;18.966;2022-08-21T02:11:50;25.30;;;16.90;;
57889;SDS011;43707;50.184;18.966;2022-08-21T02:14:16;17.90;;;15.00;;
57889;SDS011;43707;50.184;18.966;2022-08-21T02:16:43;18.20;;;15.40;;
57889;SDS011;43707;50.184;18.966;2022-08-21T02:19:09;16.60;;;15.00;;
57889;SDS011;43707;50.184;18.966;2022-08-21T02:21:36;21.20;;;16.00;;
57889;SDS011;43707;50.184;18.966;2022-08-21T02:24:01;19.90;;;15.40;;
57889;SDS011;43707;50.184;18.966;2022-08-21T02:26:27;18.80;;;15.80;;
57889;SDS011;43707;50.184;18.966;2022-08-21T02:28:53;18.90;;;15.70;;
57889;SDS011;43707;50.184;18.966;2022-08-21T02:31:18;20.20;;;15.70;;
57889;SDS011;43707;50.184;18.966;2022-08-21T02:33:44;19.80;;;15.90;;
57889;SDS011;43707;50.184;18.966;2022-08-21T02:36:10;19.70;;;16.20;;
57889;SDS011;43707;50.184;18.966;2022-08-21T02:38:37;19.50;;;16.50;;
57889;SDS011;43707;50.184;18.966;2022-08-21T02:41:05;22.30;;;16.30;;
57889;SDS011;43707;50.184;18.966;2022-08-21T02:43:32;24.20;;;15.80;;
57889;SDS011;43707;50.184;18.966;2022-08-21T02:45:58;22.30;;;16.90;;
57889;SDS011;43707;50.184;18.966;2022-08-21T02:48:26;27.60;;;18.30;;
57889;SDS011;43707;50.184;18.966;2022-08-21T02:50:55;22.60;;;17.20;;
57889;SDS011;43707;50.184;18.966;2022-08-21T02:53:22;23.30;;;16.40;;
57889;SDS011;43707;50.184;18.966;2022-08-21T02:55:49;18.80;;;15.90;;
57889;SDS011;43707;50.184;18.966;2022-08-21T02:58:17;22.70;;;16.50;;
57889;SDS011;43707;50.184;18.966;2022-08-21T03:00:43;18.70;;;16.10;;
57889;SDS011;43707;50.184;18.966;2022-08-21T03:03:09;22.00;;;16.80;;
57889;SDS011;43707;50.184;18.966;2022-08-21T03:05:35;25.10;;;19.10;;
57889;SDS011;43707;50.184;18.966;2022-08-21T03:08:03;26.50;;;20.40;;
57889;SDS011;43707;50.184;18.966;2022-08-21T03:10:34;26.80;;;18.70;;
57889;SDS011;43707;50.184;18.966;2022-08-21T03:13:00;19.80;;;17.60;;
57889;SDS011;43707;50.184;18.966;2022-08-21T03:15:28;20.70;;;18.00;;
57889;SDS011;43707;50.184;18.966;2022-08-21T03:17:54;20.00;;;16.20;;
57889;SDS011;43707;50.184;18.966;2022-08-21T03:20:22;23.90;;;15.70;;
57889;SDS011;43707;50.184;18.966;2022-08-21T03:22:49;19.60;;;14.60;;
57889;SDS011;43707;50.184;18.966;2022-08-21T03:25:15;22.00;;;14.90;;
57889;SDS011;43707;50.184;18.966;2022-08-21T03:27:41;18.10;;;14.50;;
57889;SDS011;43707;50.184;18.966;2022-08-21T03:30:08;20.50;;;14.90;;
57889;SDS011;43707;50.184;18.966;2022-08-21T03:32:34;20.80;;;14.40;;
57889;SDS011;43707;50.184;18.966;2022-08-21T03:35:01;16.90;;;14.80;;
57889;SDS011;43707;50.184;18.966;2022-08-21T03:37:27;19.10;;;14.50;;
57889;SDS011;43707;50.184;18.966;2022-08-21T03:39:53;19.90;;;14.20;;
57889;SDS011;43707;50.184;18.966;2022-08-21T03:42:18;17.60;;;14.30;;
57889;SDS011;43707;50.184;18.966;2022-08-21T03:44:43;16.70;;;14.10;;
57889;SDS011;43707;50.184;18.966;2022-08-21T03:47:09;18.70;;;13.20;;
57889;SDS011;43707;50.184;18.966;2022-08-21T03:49:35;17.30;;;14.80;;
57889;SDS011;43707;50.184;18.966;2022-08-21T03:52:01;19.90;;;14.10;;
57889;SDS011;43707;50.184;18.966;2022-08-21T03:54:26;15.70;;;14.10;;
57889;SDS011;43707;50.184;18.966;2022-08-21T03:56:52;16.20;;;14.60;;
57889;SDS011;43707;50.184;18.966;2022-08-21T03:59:17;17.40;;;14.20;;
57889;SDS011;43707;50.184;18.966;2022-08-21T04:01:56;19.30;;;14.40;;
57889;SDS011;43707;50.184;18.966;2022-08-21T04:04:23;25.40;;;15.30;;
57889;SDS011;43707;50.184;18.966;2022-08-21T04:06:49;21.40;;;15.20;;
57889;SDS011;43707;50.184;18.966;2022-08-21T04:09:15;18.90;;;13.80;;
57889;SDS011;43707;50.184;18.966;2022-08-21T04:11:41;18.00;;;14.30;;
57889;SDS011;43707;50.184;18.966;2022-08-21T04:14:06;16.80;;;13.00;;
57889;SDS011;43707;50.184;18.966;2022-08-21T04:16:32;18.90;;;13.90;;
57889;SDS011;43707;50.184;18.966;2022-08-21T04:18:57;16.30;;;13.50;;
57889;SDS011;43707;50.184;18.966;2022-08-21T04:21:23;18.10;;;13.00;;
57889;SDS011;43707;50.184;18.966;2022-08-21T04:23:49;16.40;;;13.80;;
57889;SDS011;43707;50.184;18.966;2022-08-21T04:26:15;17.40;;;14.70;;
57889;SDS011;43707;50.184;18.966;2022-08-21T04:28:40;15.80;;;14.10;;
57889;SDS011;43707;50.184;18.966;2022-08-21T04:31:06;14.40;;;12.90;;
57889;SDS011;43707;50.184;18.966;2022-08-21T04:33:31;15.60;;;13.30;;
57889;SDS011;43707;50.184;18.966;2022-08-21T04:35:57;19.30;;;13.50;;
57889;SDS011;43707;50.184;18.966;2022-08-21T04:38:22;14.40;;;13.10;;
57889;SDS011;43707;50.184;18.966;2022-08-21T04:40:48;16.50;;;13.40;;
57889;SDS011;43707;50.184;18.966;2022-08-21T04:43:14;16.30;;;14.00;;
57889;SDS011;43707;50.184;18.966;2022-08-21T04:45:41;14.90;;;12.50;;
57889;SDS011;43707;50.184;18.966;2022-08-21T04:48:09;15.50;;;13.00;;
57889;SDS011;43707;50.184;18.966;2022-08-21T04:53:08;21.50;;;13.90;;
57889;SDS011;43707;50.184;18.966;2022-08-21T04:55:42;19.90;;;14.50;;
57889;SDS011;43707;50.184;18.966;2022-08-21T04:58:09;17.30;;;14.50;;
57889;SDS011;43707;50.184;18.966;2022-08-21T05:00:37;19.80;;;14.20;;
57889;SDS011;43707;50.184;18.966;2022-08-21T05:03:03;20.00;;;14.20;;
57889;SDS011;43707;50.184;18.966;2022-08-21T05:05:29;20.10;;;14.90;;
57889;SDS011;43707;50.184;18.966;2022-08-21T05:07:54;15.90;;;13.70;;
57889;SDS011;43707;50.184;18.966;2022-08-21T05:10:21;16.50;;;13.20;;
57889;SDS011;43707;50.184;18.966;2022-08-21T05:12:47;16.90;;;14.30;;
57889;SDS011;43707;50.184;18.966;2022-08-21T05:15:13;18.00;;;13.40;;
57889;SDS011;43707;50.184;18.966;2022-08-21T05:17:39;21.10;;;15.70;;
57889;SDS011;43707;50.184;18.966;2022-08-21T05:20:05;23.40;;;14.80;;
57889;SDS011;43707;50.184;18.966;2022-08-21T05:22:31;20.90;;;15.00;;
57889;SDS011;43707;50.184;18.966;2022-08-21T05:24:56;20.80;;;15.70;;
57889;SDS011;43707;50.184;18.966;2022-08-21T05:27:22;24.20;;;17.00;;
57889;SDS011;43707;50.184;18.966;2022-08-21T05:29:48;24.80;;;18.00;;
57889;SDS011;43707;50.184;18.966;2022-08-21T05:32:13;26.20;;;18.30;;
57889;SDS011;43707;50.184;18.966;2022-08-21T05:34:39;21.00;;;17.00;;
57889;SDS011;43707;50.184;18.966;2022-08-21T05:37:05;24.30;;;17.70;;
57889;SDS011;43707;50.184;18.966;2022-08-21T05:39:31;20.60;;;17.50;;
57889;SDS011;43707;50.184;18.966;2022-08-21T05:41:57;26.50;;;16.50;;
57889;SDS011;43707;50.184;18.966;2022-08-21T05:44:22;26.90;;;17.50;;
57889;SDS011;43707;50.184;18.966;2022-08-21T05:46:47;28.70;;;17.40;;
57889;SDS011;43707;50.184;18.966;2022-08-21T05:49:13;25.00;;;17.60;;
57889;SDS011;43707;50.184;18.966;2022-08-21T05:51:39;23.90;;;17.50;;
57889;SDS011;43707;50.184;18.966;2022-08-21T05:54:06;14.10;;;11.60;;
57889;SDS011;43707;50.184;18.966;2022-08-21T05:56:33;26.10;;;16.80;;
57889;SDS011;43707;50.184;18.966;2022-08-21T05:58:58;22.70;;;17.80;;
57889;SDS011;43707;50.184;18.966;2022-08-21T06:01:24;33.00;;;19.40;;
57889;SDS011;43707;50.184;18.966;2022-08-21T06:03:49;23.80;;;18.00;;
57889;SDS011;43707;50.184;18.966;2022-08-21T06:06:15;28.30;;;19.90;;
57889;SDS011;43707;50.184;18.966;2022-08-21T06:08:40;17.80;;;15.40;;
57889;SDS011;43707;50.184;18.966;2022-08-21T06:11:06;27.70;;;18.80;;
57889;SDS011;43707;50.184;18.966;2022-08-21T06:13:31;24.30;;;17.10;;
57889;SDS011;43707;50.184;18.966;2022-08-21T06:16:04;29.30;;;18.40;;
57889;SDS011;43707;50.184;18.966;2022-08-21T06:18:31;35.40;;;22.20;;
57889;SDS011;43707;50.184;18.966;2022-08-21T06:20:57;30.00;;;21.00;;
57889;SDS011;43707;50.184;18.966;2022-08-21T06:23:23;9.50;;;8.20;;
57889;SDS011;43707;50.184;18.966;2022-08-21T06:25:48;4.30;;;3.90;;
57889;SDS011;43707;50.184;18.966;2022-08-21T06:28:14;3.90;;;3.10;;
57889;SDS011;43707;50.184;18.966;2022-08-21T06:30:39;3.50;;;3.20;;
57889;SDS011;43707;50.184;18.966;2022-08-21T06:33:05;4.00;;;3.30;;
57889;SDS011;43707;50.184;18.966;2022-08-21T06:35:32;3.60;;;3.20;;
57889;SDS011;43707;50.184;18.966;2022-08-21T06:37:58;2.90;;;2.70;;
57889;SDS011;43707;50.184;18.966;2022-08-21T06:40:24;3.10;;;2.50;;
57889;SDS011;43707;50.184;18.966;2022-08-21T06:42:53;3.60;;;3.30;;
57889;SDS011;43707;50.184;18.966;2022-08-21T06:45:18;4.70;;;3.60;;
57889;SDS011;43707;50.184;18.966;2022-08-21T06:47:44;4.30;;;3.30;;
57889;SDS011;43707;50.184;18.966;2022-08-21T06:50:10;7.20;;;3.60;;
57889;SDS011;43707;50.184;18.966;2022-08-21T06:52:36;4.70;;;2.90;;
57889;SDS011;43707;50.184;18.966;2022-08-21T06:55:03;3.50;;;2.70;;
57889;SDS011;43707;50.184;18.966;2022-08-21T06:57:30;2.90;;;2.60;;
57889;SDS011;43707;50.184;18.966;2022-08-21T06:59:55;3.80;;;2.00;;
57889;SDS011;43707;50.184;18.966;2022-08-21T07:02:21;2.40;;;2.20;;
57889;SDS011;43707;50.184;18.966;2022-08-21T07:04:46;3.00;;;1.60;;
57889;SDS011;43707;50.184;18.966;2022-08-21T07:07:11;1.90;;;1.50;;
57889;SDS011;43707;50.184;18.966;2022-08-21T07:09:37;2.30;;;1.50;;
57889;SDS011;43707;50.184;18.966;2022-08-21T07:12:02;2.40;;;1.30;;
57889;SDS011;43707;50.184;18.966;2022-08-21T07:14:29;2.90;;;1.20;;
57889;SDS011;43707;50.184;18.966;2022-08-21T07:16:55;3.20;;;1.40;;
57889;SDS011;43707;50.184;18.966;2022-08-21T07:19:20;3.60;;;1.10;;
57889;SDS011;43707;50.184;18.966;2022-08-21T07:21:46;2.00;;;0.80;;
57889;SDS011;43707;50.184;18.966;2022-08-21T07:24:12;2.20;;;1.00;;
57889;SDS011;43707;50.184;18.966;2022-08-21T07:26:37;1.30;;;0.90;;
57889;SDS011;43707;50.184;18.966;2022-08-21T07:29:03;0.90;;;0.80;;
57889;SDS011;43707;50.184;18.966;2022-08-21T07:31:29;0.90;;;0.80;;
57889;SDS011;43707;50.184;18.966;2022-08-21T07:33:54;5.60;;;1.10;;
57889;SDS011;43707;50.184;18.966;2022-08-21T07:36:20;2.00;;;0.60;;
57889;SDS011;43707;50.184;18.966;2022-08-21T07:38:45;1.50;;;0.80;;
57889;SDS011;43707;50.184;18.966;2022-08-21T07:41:21;0.90;;;0.40;;
57889;SDS011;43707;50.184;18.966;2022-08-21T07:43:48;3.00;;;0.90;;
57889;SDS011;43707;50.184;18.966;2022-08-21T07:46:14;2.70;;;0.70;;
57889;SDS011;43707;50.184;18.966;2022-08-21T07:48:39;0.80;;;0.50;;
57889;SDS011;43707;50.184;18.966;2022-08-21T07:51:07;1.30;;;0.60;;
57889;SDS011;43707;50.184;18.966;2022-08-21T07:53:34;0.80;;;0.50;;
57889;SDS011;43707;50.184;18.966;2022-08-21T07:56:00;0.60;;;0.30;;
57889;SDS011;43707;50.184;18.966;2022-08-21T07:58:26;0.70;;;0.60;;
57889;SDS011;43707;50.184;18.966;2022-08-21T08:00:51;0.50;;;0.30;;
57889;SDS011;43707;50.184;18.966;2022-08-21T08:03:17;2.50;;;0.40;;
57889;SDS011;43707;50.184;18.966;2022-08-21T08:05:42;1.70;;;0.60;;
57889;SDS011;43707;50.184;18.966;2022-08-21T08:08:08;0.60;;;0.40;;
57889;SDS011;43707;50.184;18.966;2022-08-21T08:10:34;0.80;;;0.30;;
57889;SDS011;43707;50.184;18.966;2022-08-21T08:13:00;0.80;;;0.40;;
57889;SDS011;43707;50.184;18.966;2022-08-21T08:15:26;3.40;;;0.40;;
57889;SDS011;43707;50.184;18.966;2022-08-21T08:17:53;0.40;;;0.30;;
57889;SDS011;43707;50.184;18.966;2022-08-21T08:20:19;0.70;;;0.50;;
57889;SDS011;43707;50.184;18.966;2022-08-21T08:22:46;1.90;;;0.70;;
57889;SDS011;43707;50.184;18.966;2022-08-21T08:25:14;0.70;;;0.40;;
57889;SDS011;43707;50.184;18.966;2022-08-21T08:27:40;0.70;;;0.40;;
57889;SDS011;43707;50.184;18.966;2022-08-21T08:30:07;1.00;;;0.60;;
57889;SDS011;43707;50.184;18.966;2022-08-21T08:32:34;0.90;;;0.40;;
57889;SDS011;43707;50.184;18.966;2022-08-21T08:35:00;3.30;;;0.50;;
57889;SDS011;43707;50.184;18.966;2022-08-21T08:37:25;0.40;;;0.40;;
57889;SDS011;43707;50.184;18.966;2022-08-21T08:39:51;0.50;;;0.30;;
57889;SDS011;43707;50.184;18.966;2022-08-21T08:42:28;2.50;;;0.70;;
57889;SDS011;43707;50.184;18.966;2022-08-21T08:45:06;1.10;;;0.50;;
57889;SDS011;43707;50.184;18.966;2022-08-21T08:47:37;0.70;;;0.50;;
57889;SDS011;43707;50.184;18.966;2022-08-21T08:50:06;0.80;;;0.50;;
57889;SDS011;43707;50.184;18.966;2022-08-21T08:52:40;0.70;;;0.50;;
57889;SDS011;43707;50.184;18.966;2022-08-21T08:55:21;1.80;;;0.50;;
57889;SDS011;43707;50.184;18.966;2022-08-21T08:57:51;1.80;;;0.50;;
57889;SDS011;43707;50.184;18.966;2022-08-21T09:00:18;0.60;;;0.40;;
57889;SDS011;43707;50.184;18.966;2022-08-21T09:02:46;0.90;;;0.60;;
57889;SDS011;43707;50.184;18.966;2022-08-21T09:05:46;0.90;;;0.60;;
57889;SDS011;43707;50.184;18.966;2022-08-21T09:11:01;1.30;;;0.60;;
57889;SDS011;43707;50.184;18.966;2022-08-21T09:27:19;1.10;;;0.40;;
57889;SDS011;43707;50.184;18.966;2022-08-21T09:29:48;5.90;;;0.70;;
57889;SDS011;43707;50.184;18.966;2022-08-21T09:32:23;0.90;;;0.60;;
57889;SDS011;43707;50.184;18.966;2022-08-21T09:37:48;1.10;;;0.60;;
57889;SDS011;43707;50.184;18.966;2022-08-21T09:45:37;2.00;;;0.50;;
57889;SDS011;43707;50.184;18.966;2022-08-21T09:48:23;0.60;;;0.40;;
57889;SDS011;43707;50.184;18.966;2022-08-21T09:50:51;1.10;;;0.70;;
57889;SDS011;43707;50.184;18.966;2022-08-21T09:53:22;0.90;;;0.60;;
57889;SDS011;43707;50.184;18.966;2022-08-21T09:55:59;0.60;;;0.40;;
57889;SDS011;43707;50.184;18.966;2022-08-21T09:58:58;1.00;;;0.70;;
57889;SDS011;43707;50.184;18.966;2022-08-21T10:01:24;2.80;;;1.20;;
57889;SDS011;43707;50.184;18.966;2022-08-21T10:07:09;0.80;;;0.50;;
57889;SDS011;43707;50.184;18.966;2022-08-21T10:09:36;1.10;;;0.70;;
57889;SDS011;43707;50.184;18.966;2022-08-21T10:25:21;2.00;;;0.80;;
57889;SDS011;43707;50.184;18.966;2022-08-21T10:27:57;1.80;;;0.60;;
57889;SDS011;43707;50.184;18.966;2022-08-21T10:30:43;0.70;;;0.60;;
57889;SDS011;43707;50.184;18.966;2022-08-21T10:35:57;3.20;;;0.80;;
57889;SDS011;43707;50.184;18.966;2022-08-21T10:54:46;2.90;;;2.60;;
57889;SDS011;43707;50.184;18.966;2022-08-21T11:00:15;2.90;;;2.70;;
57889;SDS011;43707;50.184;18.966;2022-08-21T11:02:49;4.10;;;3.70;;
57889;SDS011;43707;50.184;18.966;2022-08-21T11:05:35;3.80;;;3.50;;
57889;SDS011;43707;50.184;18.966;2022-08-21T11:08:10;3.30;;;3.00;;
57889;SDS011;43707;50.184;18.966;2022-08-21T11:10:42;3.70;;;3.10;;
57889;SDS011;43707;50.184;18.966;2022-08-21T11:13:58;3.20;;;2.50;;
57889;SDS011;43707;50.184;18.966;2022-08-21T11:16:28;2.80;;;2.50;;
57889;SDS011;43707;50.184;18.966;2022-08-21T11:19:02;4.30;;;2.90;;
57889;SDS011;43707;50.184;18.966;2022-08-21T11:26:52;3.50;;;3.20;;
57889;SDS011;43707;50.184;18.966;2022-08-21T11:29:33;6.90;;;3.20;;
57889;SDS011;43707;50.184;18.966;2022-08-21T11:37:35;2.90;;;2.30;;
57889;SDS011;43707;50.184;18.966;2022-08-21T11:40:12;3.00;;;2.60;;
57889;SDS011;43707;50.184;18.966;2022-08-21T11:42:50;2.30;;;2.10;;
57889;SDS011;43707;50.184;18.966;2022-08-21T11:45:39;3.70;;;3.20;;
57889;SDS011;43707;50.184;18.966;2022-08-21T11:50:56;2.90;;;2.60;;
57889;SDS011;43707;50.184;18.966;2022-08-21T11:53:31;2.50;;;2.00;;
57889;SDS011;43707;50.184;18.966;2022-08-21T11:59:19;2.90;;;2.10;;
57889;SDS011;43707;50.184;18.966;2022-08-21T12:01:48;3.10;;;1.80;;
57889;SDS011;43707;50.184;18.966;2022-08-21T12:04:29;2.20;;;1.20;;
57889;SDS011;43707;50.184;18.966;2022-08-21T12:06:56;3.00;;;1.20;;
57889;SDS011;43707;50.184;18.966;2022-08-21T12:09:35;2.00;;;1.20;;
57889;SDS011;43707;50.184;18.966;2022-08-21T12:14:51;1.00;;;0.90;;
57889;SDS011;43707;50.184;18.966;2022-08-21T12:17:37;2.40;;;1.10;;
57889;SDS011;43707;50.184;18.966;2022-08-21T12:20:17;1.30;;;0.90;;
57889;SDS011;43707;50.184;18.966;2022-08-21T12:28:29;2.50;;;0.90;;
57889;SDS011;43707;50.184;18.966;2022-08-21T12:30:56;1.30;;;1.00;;
57889;SDS011;43707;50.184;18.966;2022-08-21T12:36:07;1.20;;;1.00;;
57889;SDS011;43707;50.184;18.966;2022-08-21T12:38:49;1.50;;;0.90;;
57889;SDS011;43707;50.184;18.966;2022-08-21T12:41:21;1.20;;;0.90;;
57889;SDS011;43707;50.184;18.966;2022-08-21T12:43:56;2.90;;;1.40;;
57889;SDS011;43707;50.184;18.966;2022-08-21T12:49:13;2.10;;;1.40;;
57889;SDS011;43707;50.184;18.966;2022-08-21T12:51:57;2.60;;;1.30;;
57889;SDS011;43707;50.184;18.966;2022-08-21T12:54:27;4.60;;;1.40;;
57889;SDS011;43707;50.184;18.966;2022-08-21T12:56:59;1.30;;;1.20;;
57889;SDS011;43707;50.184;18.966;2022-08-21T12:59:26;2.10;;;1.30;;
57889;SDS011;43707;50.184;18.966;2022-08-21T13:01:51;1.90;;;1.30;;
57889;SDS011;43707;50.184;18.966;2022-08-21T13:04:21;1.20;;;1.00;;
57889;SDS011;43707;50.184;18.966;2022-08-21T13:06:52;2.70;;;1.30;;
57889;SDS011;43707;50.184;18.966;2022-08-21T13:09:29;2.30;;;1.20;;
57889;SDS011;43707;50.184;18.966;2022-08-21T13:11:55;1.50;;;1.10;;
57889;SDS011;43707;50.184;18.966;2022-08-21T13:14:40;1.30;;;1.10;;
57889;SDS011;43707;50.184;18.966;2022-08-21T13:17:07;1.90;;;1.40;;
57889;SDS011;43707;50.184;18.966;2022-08-21T13:19:34;1.40;;;1.30;;
57889;SDS011;43707;50.184;18.966;2022-08-21T13:22:00;1.70;;;1.60;;
57889;SDS011;43707;50.184;18.966;2022-08-21T13:24:30;2.60;;;1.30;;
57889;SDS011;43707;50.184;18.966;2022-08-21T13:26:59;3.10;;;1.60;;
57889;SDS011;43707;50.184;18.966;2022-08-21T13:29:28;1.50;;;1.40;;
57889;SDS011;43707;50.184;18.966;2022-08-21T13:32:00;2.10;;;1.70;;
57889;SDS011;43707;50.184;18.966;2022-08-21T13:34:34;1.60;;;1.50;;
57889;SDS011;43707;50.184;18.966;2022-08-21T13:37:02;2.20;;;2.00;;
57889;SDS011;43707;50.184;18.966;2022-08-21T13:39:30;1.80;;;1.70;;
57889;SDS011;43707;50.184;18.966;2022-08-21T13:41:57;1.90;;;1.80;;
57889;SDS011;43707;50.184;18.966;2022-08-21T13:44:35;1.80;;;1.50;;
57889;SDS011;43707;50.184;18.966;2022-08-21T13:47:05;1.60;;;1.50;;
57889;SDS011;43707;50.184;18.966;2022-08-21T13:49:34;1.80;;;1.70;;
57889;SDS011;43707;50.184;18.966;2022-08-21T13:52:03;3.30;;;1.40;;
57889;SDS011;43707;50.184;18.966;2022-08-21T13:54:34;1.80;;;1.70;;
57889;SDS011;43707;50.184;18.966;2022-08-21T13:57:02;1.60;;;1.50;;
57889;SDS011;43707;50.184;18.966;2022-08-21T13:59:29;1.30;;;1.20;;
57889;SDS011;43707;50.184;18.966;2022-08-21T14:04:55;2.30;;;2.00;;
57889;SDS011;43707;50.184;18.966;2022-08-21T14:07:28;2.20;;;2.00;;
57889;SDS011;43707;50.184;18.966;2022-08-21T14:09:56;2.50;;;1.90;;
57889;SDS011;43707;50.184;18.966;2022-08-21T14:12:27;2.10;;;1.90;;
57889;SDS011;43707;50.184;18.966;2022-08-21T14:14:54;2.30;;;1.90;;
57889;SDS011;43707;50.184;18.966;2022-08-21T14:17:28;3.00;;;2.10;;
57889;SDS011;43707;50.184;18.966;2022-08-21T14:19:57;2.40;;;1.80;;
57889;SDS011;43707;50.184;18.966;2022-08-21T14:25:13;1.70;;;1.50;;
57889;SDS011;43707;50.184;18.966;2022-08-21T14:27:51;1.50;;;1.40;;
57889;SDS011;43707;50.184;18.966;2022-08-21T14:32:49;1.40;;;1.30;;
57889;SDS011;43707;50.184;18.966;2022-08-21T14:35:14;1.90;;;1.20;;
57889;SDS011;43707;50.184;18.966;2022-08-21T14:37:43;1.40;;;1.10;;
57889;SDS011;43707;50.184;18.966;2022-08-21T14:40:09;1.40;;;1.00;;
57889;SDS011;43707;50.184;18.966;2022-08-21T14:42:36;1.50;;;1.10;;
57889;SDS011;43707;50.184;18.966;2022-08-21T14:45:05;1.20;;;1.10;;
57889;SDS011;43707;50.184;18.966;2022-08-21T14:47:36;1.70;;;1.20;;
57889;SDS011;43707;50.184;18.966;2022-08-21T14:50:03;1.80;;;1.20;;
57889;SDS011;43707;50.184;18.966;2022-08-21T14:52:28;4.10;;;1.20;;
57889;SDS011;43707;50.184;18.966;2022-08-21T14:54:54;1.40;;;1.30;;
57889;SDS011;43707;50.184;18.966;2022-08-21T14:57:19;1.30;;;1.20;;
57889;SDS011;43707;50.184;18.966;2022-08-21T14:59:45;1.60;;;1.50;;
57889;SDS011;43707;50.184;18.966;2022-08-21T15:02:10;1.20;;;1.10;;
57889;SDS011;43707;50.184;18.966;2022-08-21T15:04:36;1.50;;;1.40;;
57889;SDS011;43707;50.184;18.966;2022-08-21T15:07:02;1.80;;;1.40;;
57889;SDS011;43707;50.184;18.966;2022-08-21T15:09:27;1.60;;;1.50;;
57889;SDS011;43707;50.184;18.966;2022-08-21T15:11:55;3.10;;;1.10;;
57889;SDS011;43707;50.184;18.966;2022-08-21T15:14:22;1.40;;;1.30;;
57889;SDS011;43707;50.184;18.966;2022-08-21T15:16:51;1.90;;;1.60;;
57889;SDS011;43707;50.184;18.966;2022-08-21T15:19:17;1.50;;;1.30;;
57889;SDS011;43707;50.184;18.966;2022-08-21T15:21:43;2.40;;;1.70;;
57889;SDS011;43707;50.184;18.966;2022-08-21T15:24:08;3.30;;;2.90;;
57889;SDS011;43707;50.184;18.966;2022-08-21T15:26:34;3.30;;;3.00;;
57889;SDS011;43707;50.184;18.966;2022-08-21T15:29:00;3.90;;;3.50;;
57889;SDS011;43707;50.184;18.966;2022-08-21T15:31:26;3.70;;;3.40;;
57889;SDS011;43707;50.184;18.966;2022-08-21T15:33:53;3.30;;;2.70;;
57889;SDS011;43707;50.184;18.966;2022-08-21T15:36:18;3.70;;;3.40;;
57889;SDS011;43707;50.184;18.966;2022-08-21T15:38:44;3.40;;;3.10;;
57889;SDS011;43707;50.184;18.966;2022-08-21T15:41:10;4.90;;;4.00;;
57889;SDS011;43707;50.184;18.966;2022-08-21T15:43:41;4.50;;;4.10;;
57889;SDS011;43707;50.184;18.966;2022-08-21T15:46:11;4.70;;;4.00;;
57889;SDS011;43707;50.184;18.966;2022-08-21T15:48:38;4.10;;;3.70;;
57889;SDS011;43707;50.184;18.966;2022-08-21T15:51:04;4.60;;;3.80;;
57889;SDS011;43707;50.184;18.966;2022-08-21T15:53:29;3.50;;;3.20;;
57889;SDS011;43707;50.184;18.966;2022-08-21T15:55:57;4.60;;;4.20;;
57889;SDS011;43707;50.184;18.966;2022-08-21T15:58:22;4.80;;;3.80;;
57889;SDS011;43707;50.184;18.966;2022-08-21T16:00:48;3.50;;;2.80;;
57889;SDS011;43707;50.184;18.966;2022-08-21T16:03:14;5.10;;;3.10;;
57889;SDS011;43707;50.184;18.966;2022-08-21T16:05:42;5.30;;;3.20;;
57889;SDS011;43707;50.184;18.966;2022-08-21T16:08:13;3.00;;;2.60;;
57889;SDS011;43707;50.184;18.966;2022-08-21T16:10:39;4.30;;;3.30;;
57889;SDS011;43707;50.184;18.966;2022-08-21T16:13:06;3.10;;;2.80;;
57889;SDS011;43707;50.184;18.966;2022-08-21T16:15:35;3.00;;;2.70;;
57889;SDS011;43707;50.184;18.966;2022-08-21T16:18:00;6.40;;;2.80;;
57889;SDS011;43707;50.184;18.966;2022-08-21T16:20:27;3.70;;;3.40;;